Time;durP1;ratioP1;P1;durP2;ratioP2;P2;SDS_P1;SDS_P2;PMS_P1;PMS_P2;Temp;Humidity;BMP_temperature;BMP_pressure;BME280_temperature;BME280_humidity;BME280_pressure;Samples;Min_cycle;Max_cycle;Signal;HPM_P1;HPM_P2
2021/08/23 00:00:10;;;;;;;55.55;30.95;;;15.00;81.60;;;;;;5032877;28;20025;-75
2021/08/23 00:02:36;;;;;;;55.33;32.58;;;15.00;81.60;;;;;;5033265;28;20025;-74
2021/08/23 00:05:02;;;;;;;47.17;29.48;;;15.00;81.60;;;;;;5032231;28;20032;-75
2021/08/23 00:07:28;;;;;;;47.42;28.98;;;15.00;81.60;;;;;;5033195;28;20116;-75
2021/08/23 00:09:53;;;;;;;40.42;26.90;;;14.90;81.60;;;;;;5032820;28;20415;-75
2021/08/23 00:12:19;;;;;;;41.20;26.92;;;14.80;81.90;;;;;;5032027;28;20462;-75
2021/08/23 00:14:45;;;;;;;43.63;28.08;;;14.80;82.20;;;;;;5031952;28;20360;-75
2021/08/23 00:17:10;;;;;;;44.47;28.10;;;14.80;82.40;;;;;;5032850;28;20127;-75
2021/08/23 00:19:36;;;;;;;48.22;29.10;;;14.80;82.50;;;;;;5031346;28;20065;-75
2021/08/23 00:22:19;;;;;;;51.97;30.25;;;14.70;82.60;;;;;;5032725;28;20025;-75
2021/08/23 00:24:45;;;;;;;46.83;30.33;;;14.70;83.00;;;;;;5032453;28;20486;-74
2021/08/23 00:27:11;;;;;;;42.67;27.60;;;14.60;83.20;;;;;;5033395;28;20029;-75
2021/08/23 00:29:36;;;;;;;43.60;27.52;;;14.60;83.70;;;;;;5033326;28;20375;-74
2021/08/23 00:32:02;;;;;;;41.55;27.25;;;14.60;83.90;;;;;;5032362;28;20018;-74
2021/08/23 00:34:28;;;;;;;49.10;27.63;;;14.50;84.10;;;;;;5031996;28;20036;-74
2021/08/23 00:36:54;;;;;;;47.00;28.77;;;14.50;84.30;;;;;;5033652;28;20395;-74
2021/08/23 00:39:19;;;;;;;45.00;28.23;;;14.40;84.50;;;;;;5033402;28;20345;-72
2021/08/23 00:41:45;;;;;;;49.05;30.10;;;14.40;84.80;;;;;;5031985;28;20428;-74
2021/08/23 00:44:11;;;;;;;47.92;30.42;;;14.40;85.20;;;;;;5032781;28;20025;-74
2021/08/23 00:46:36;;;;;;;44.65;27.05;;;14.30;85.10;;;;;;5033190;28;20455;-74
2021/08/23 00:49:04;;;;;;;49.22;30.85;;;14.30;85.60;;;;;;5032965;28;20018;-74
2021/08/23 00:51:30;;;;;;;44.28;28.05;;;14.30;86.50;;;;;;5031970;28;20386;-74
2021/08/23 00:53:56;;;;;;;46.70;28.40;;;14.30;85.90;;;;;;5031593;28;20022;-73
2021/08/23 00:56:22;;;;;;;42.50;25.85;;;14.40;85.80;;;;;;5032789;28;20029;-74
2021/08/23 00:58:51;;;;;;;46.30;28.30;;;14.40;85.80;;;;;;5035151;28;20051;-74
2021/08/23 01:02:04;;;;;;;46.47;29.83;;;14.50;85.70;;;;;;5035276;28;20029;-74
2021/08/23 01:04:30;;;;;;;57.53;31.00;;;14.50;85.20;;;;;;5033284;28;20502;-74
2021/08/23 01:06:59;;;;;;;49.47;31.55;;;14.40;85.20;;;;;;5034603;28;20026;-74
2021/08/23 01:09:28;;;;;;;47.25;30.83;;;14.50;85.50;;;;;;5035258;28;20052;-74
2021/08/23 01:11:55;;;;;;;47.50;31.38;;;14.50;85.20;;;;;;5036337;28;20460;-75
2021/08/23 01:14:21;;;;;;;41.58;27.50;;;14.50;85.20;;;;;;5035025;28;20491;-74
2021/08/23 01:16:47;;;;;;;46.88;29.15;;;14.50;85.20;;;;;;5035941;28;20037;-74
2021/08/23 01:19:16;;;;;;;45.75;29.15;;;14.50;85.20;;;;;;5036252;28;20032;-75
2021/08/23 01:21:42;;;;;;;43.42;28.27;;;14.50;85.10;;;;;;5034768;28;20033;-75
2021/08/23 01:24:09;;;;;;;47.75;27.45;;;14.40;85.20;;;;;;5067904;28;20029;-75
2021/08/23 01:26:44;;;;;;;42.95;26.05;;;14.40;85.50;;;;;;5034517;28;20026;-75
2021/08/23 01:29:31;;;;;;;39.28;24.73;;;14.40;85.90;;;;;;5035089;28;20038;-75
2021/08/23 01:32:06;;;;;;;45.78;26.35;;;14.40;85.90;;;;;;5034870;28;20033;-74
2021/08/23 01:34:33;;;;;;;41.72;25.13;;;14.30;85.90;;;;;;5035659;28;20364;-74
2021/08/23 01:37:01;;;;;;;44.05;27.38;;;14.30;86.20;;;;;;5035616;28;20113;-74
2021/08/23 01:39:26;;;;;;;39.08;24.80;;;14.30;86.40;;;;;;5034152;28;20375;-75
2021/08/23 01:41:52;;;;;;;42.05;25.92;;;14.30;86.70;;;;;;5033906;28;20062;-74
2021/08/23 01:44:18;;;;;;;38.60;23.70;;;14.30;87.00;;;;;;5035930;28;20523;-75
2021/08/23 01:46:43;;;;;;;34.45;22.52;;;14.30;87.10;;;;;;5035317;28;20033;-74
2021/08/23 01:49:10;;;;;;;39.63;24.73;;;14.30;87.30;;;;;;5035424;28;20018;-74
2021/08/23 01:51:36;;;;;;;35.22;23.02;;;14.30;87.30;;;;;;5034064;28;20037;-74
2021/08/23 01:54:04;;;;;;;32.10;20.90;;;14.20;87.60;;;;;;5035045;28;20031;-74
2021/08/23 01:56:30;;;;;;;31.48;20.20;;;14.30;88.10;;;;;;5034312;28;20029;-74
2021/08/23 01:58:58;;;;;;;37.88;20.75;;;14.30;88.30;;;;;;5035443;28;20029;-73
2021/08/23 02:01:24;;;;;;;36.35;19.73;;;14.30;88.30;;;;;;5033908;28;20021;-75
2021/08/23 02:03:49;;;;;;;33.20;19.92;;;14.40;88.70;;;;;;5033979;28;20359;-75
2021/08/23 02:06:16;;;;;;;40.30;22.80;;;14.40;88.80;;;;;;5034690;28;20363;-75
2021/08/23 02:08:42;;;;;;;51.35;26.42;;;14.40;88.90;;;;;;5068306;28;20042;-74
2021/08/23 02:11:08;;;;;;;50.17;24.27;;;14.50;89.10;;;;;;5039137;28;20033;-75
2021/08/23 02:13:33;;;;;;;39.65;19.60;;;14.50;89.20;;;;;;5038154;28;20040;-75
2021/08/23 02:15:59;;;;;;;34.60;16.65;;;14.50;89.30;;;;;;5040171;28;20029;-69
2021/08/23 02:18:25;;;;;;;31.73;17.60;;;14.50;89.30;;;;;;5044677;28;20108;-79
2021/08/23 02:20:50;;;;;;;35.83;17.88;;;14.50;89.20;;;;;;5043130;28;20025;-80
2021/08/23 02:23:16;;;;;;;29.27;17.55;;;14.50;89.10;;;;;;5035319;28;20021;-79
2021/08/23 02:25:42;;;;;;;35.08;18.38;;;14.60;89.20;;;;;;5034233;28;20021;-86
2021/08/23 02:28:07;;;;;;;43.03;20.25;;;14.60;89.20;;;;;;5033564;28;20029;-74
2021/08/23 02:30:34;;;;;;;50.75;24.25;;;14.60;89.20;;;;;;5034635;28;20025;-73
2021/08/23 02:32:59;;;;;;;61.40;27.50;;;14.60;89.40;;;;;;5028028;28;20127;-75
2021/08/23 02:35:25;;;;;;;58.30;27.63;;;14.60;89.30;;;;;;5031784;28;20443;-74
2021/08/23 02:37:50;;;;;;;62.10;28.70;;;14.60;89.30;;;;;;5034779;28;20048;-73
2021/08/23 02:40:16;;;;;;;55.88;25.73;;;14.70;89.50;;;;;;5033389;28;20025;-73
2021/08/23 02:42:42;;;;;;;50.58;25.15;;;14.70;89.20;;;;;;5034672;28;20466;-74
2021/08/23 02:45:08;;;;;;;53.88;25.10;;;14.70;89.20;;;;;;5034517;28;20029;-73
2021/08/23 02:47:36;;;;;;;43.75;20.67;;;14.70;89.10;;;;;;5034512;28;20032;-74
2021/08/23 02:50:04;;;;;;;42.63;22.05;;;14.70;88.90;;;;;;5034530;28;20018;-73
2021/08/23 02:52:29;;;;;;;34.53;20.48;;;14.70;88.60;;;;;;5033148;28;20026;-73
2021/08/23 02:54:55;;;;;;;43.42;21.98;;;14.60;88.40;;;;;;5034382;28;20017;-73
2021/08/23 02:57:21;;;;;;;45.50;21.23;;;14.60;88.20;;;;;;5034255;28;20030;-74
2021/08/23 02:59:46;;;;;;;39.60;19.85;;;14.50;88.20;;;;;;5033025;28;20021;-73
2021/08/23 03:02:12;;;;;;;37.83;19.73;;;14.40;88.50;;;;;;5033939;28;20515;-73
2021/08/23 03:04:38;;;;;;;38.40;19.77;;;14.40;88.90;;;;;;5034267;28;20451;-73
2021/08/23 03:07:03;;;;;;;37.67;20.95;;;14.40;89.00;;;;;;5033205;28;20336;-72
2021/08/23 03:09:29;;;;;;;38.15;19.35;;;14.40;89.50;;;;;;5034370;28;20037;-72
2021/08/23 03:11:55;;;;;;;36.80;19.48;;;14.40;89.80;;;;;;5034344;28;20026;-73
2021/08/23 03:14:22;;;;;;;34.53;18.38;;;14.50;90.00;;;;;;5034136;28;20045;-73
2021/08/23 03:16:47;;;;;;;34.58;17.65;;;14.60;89.90;;;;;;5032411;28;20352;-73
2021/08/23 03:19:13;;;;;;;29.23;16.10;;;14.70;89.80;;;;;;5033978;28;20477;-73
2021/08/23 03:21:39;;;;;;;35.40;16.10;;;14.80;89.50;;;;;;5032816;28;20028;-73
2021/08/23 03:24:04;;;;;;;29.90;16.10;;;15.00;89.30;;;;;;5033003;28;20108;-73
2021/08/23 03:26:30;;;;;;;40.00;18.55;;;15.10;88.80;;;;;;5033809;28;20029;-73
2021/08/23 03:28:56;;;;;;;77.35;33.15;;;15.30;88.40;;;;;;5032674;28;20033;-73
2021/08/23 03:31:21;;;;;;;55.80;26.38;;;15.50;87.80;;;;;;5033603;28;20025;-73
2021/08/23 03:33:47;;;;;;;53.80;24.08;;;15.70;87.10;;;;;;5033920;28;20053;-72
2021/08/23 03:36:13;;;;;;;50.85;24.90;;;15.90;85.70;;;;;;5033826;28;20083;-72
2021/08/23 03:38:40;;;;;;;46.13;23.38;;;16.00;84.60;;;;;;5032502;28;20034;-73
2021/08/23 03:41:06;;;;;;;40.75;21.38;;;16.10;84.20;;;;;;5033695;28;20029;-73
2021/08/23 03:43:32;;;;;;;35.75;19.30;;;16.30;83.90;;;;;;5032403;28;20456;-73
2021/08/23 03:45:57;;;;;;;34.80;17.40;;;16.50;83.40;;;;;;5032579;28;20432;-73
2021/08/23 03:48:23;;;;;;;31.55;17.80;;;16.70;82.60;;;;;;5033914;28;20021;-73
2021/08/23 03:50:49;;;;;;;30.80;17.65;;;17.00;81.80;;;;;;5033881;28;20433;-74
2021/08/23 03:53:15;;;;;;;29.95;16.45;;;17.20;80.80;;;;;;5033782;28;20021;-73
2021/08/23 03:55:40;;;;;;;31.65;16.42;;;17.40;80.10;;;;;;5033117;28;20018;-73
2021/08/23 03:58:06;;;;;;;31.92;16.05;;;17.70;79.40;;;;;;5034175;28;20032;-73
2021/08/23 04:00:32;;;;;;;33.92;16.25;;;17.90;78.50;;;;;;5033649;28;20108;-74
2021/08/23 04:02:57;;;;;;;33.17;15.38;;;18.20;77.60;;;;;;5034002;28;20358;-74
2021/08/23 04:05:23;;;;;;;26.95;14.30;;;18.50;76.60;;;;;;5033496;28;20053;-74
2021/08/23 04:07:49;;;;;;;28.73;14.27;;;18.80;75.70;;;;;;5032076;28;20045;-74
2021/08/23 04:10:15;;;;;;;32.22;14.80;;;19.10;74.90;;;;;;5033399;28;20029;-73
2021/08/23 04:12:40;;;;;;;38.88;16.08;;;19.30;73.90;;;;;;5033602;28;20018;-73
2021/08/23 04:15:07;;;;;;;30.23;14.30;;;19.60;73.10;;;;;;5033151;28;20398;-74
2021/08/23 04:17:32;;;;;;;28.38;14.27;;;19.90;72.30;;;;;;5032153;28;20025;-75
2021/08/23 04:20:01;;;;;;;34.58;14.80;;;20.20;71.50;;;;;;5032187;28;20025;-74
2021/08/23 04:22:27;;;;;;;36.17;15.25;;;20.40;70.60;;;;;;5031927;28;20064;-75
2021/08/23 04:24:52;;;;;;;33.97;15.93;;;20.60;69.80;;;;;;5031963;28;20057;-74
2021/08/23 04:27:18;;;;;;;34.35;16.90;;;20.90;69.20;;;;;;5031898;28;20056;-74
2021/08/23 04:29:44;;;;;;;37.17;16.42;;;21.20;68.60;;;;;;5032995;28;20049;-74
2021/08/23 04:32:09;;;;;;;36.05;18.70;;;21.40;68.00;;;;;;5033458;28;20032;-74
2021/08/23 04:34:35;;;;;;;43.70;19.63;;;21.50;67.20;;;;;;5036455;28;20151;-74
2021/08/23 04:37:03;;;;;;;43.20;20.00;;;21.60;66.90;;;;;;5036835;28;20022;-74
2021/08/23 04:39:31;;;;;;;41.85;21.52;;;21.80;66.40;;;;;;5035753;28;20018;-75
2021/08/23 04:41:57;;;;;;;53.83;20.73;;;22.10;66.00;;;;;;5035522;28;20022;-75
2021/08/23 04:44:22;;;;;;;34.38;15.63;;;22.30;65.30;;;;;;5036590;28;20032;-74
2021/08/23 04:46:50;;;;;;;33.75;14.07;;;22.60;64.70;;;;;;5035870;28;20479;-74
2021/08/23 04:49:16;;;;;;;27.50;13.05;;;22.80;63.90;;;;;;5036740;28;20126;-70
2021/08/23 04:51:42;;;;;;;31.90;13.15;;;23.10;63.30;;;;;;5035317;28;20052;-80
2021/08/23 04:54:08;;;;;;;21.40;11.20;;;23.30;62.80;;;;;;5036626;28;20432;-72
2021/08/23 04:56:33;;;;;;;21.20;10.32;;;23.50;62.10;;;;;;5034877;28;20024;-79
2021/08/23 04:58:59;;;;;;;19.60;11.98;;;23.70;61.40;;;;;;5036485;28;20033;-85
2021/08/23 05:01:25;;;;;;;20.65;11.02;;;23.90;61.20;;;;;;5033658;28;20364;-83
2021/08/23 05:03:51;;;;;;;18.63;10.77;;;24.30;60.50;;;;;;5042710;28;20029;-86
2021/08/23 05:06:16;;;;;;;16.80;10.18;;;24.60;60.10;;;;;;5034936;28;20121;-69
2021/08/23 05:08:42;;;;;;;19.77;11.20;;;25.00;59.60;;;;;;5034264;28;20041;-72
2021/08/23 05:11:08;;;;;;;17.58;11.73;;;25.30;59.10;;;;;;5034516;28;20036;-72
2021/08/23 05:13:34;;;;;;;22.58;13.35;;;25.50;58.60;;;;;;5031200;28;20021;-71
2021/08/23 05:16:00;;;;;;;22.02;13.05;;;25.90;58.10;;;;;;5039830;28;20036;-71
2021/08/23 05:18:25;;;;;;;19.63;12.90;;;26.10;57.80;;;;;;5037042;28;20105;-73
2021/08/23 05:20:51;;;;;;;21.20;12.77;;;26.30;57.10;;;;;;5034945;28;20029;-86
2021/08/23 05:23:17;;;;;;;20.20;12.07;;;26.40;56.70;;;;;;5036547;28;20037;-91
2021/08/23 05:25:43;;;;;;;21.15;12.82;;;26.60;56.20;;;;;;5045131;28;20021;-83
2021/08/23 05:28:08;;;;;;;26.55;13.52;;;26.90;55.60;;;;;;5038355;28;20444;-77
2021/08/23 05:30:34;;;;;;;26.42;12.65;;;27.10;55.20;;;;;;5040019;28;20020;-77
2021/08/23 05:33:00;;;;;;;26.02;13.15;;;27.20;54.50;;;;;;5043704;28;20414;-76
2021/08/23 05:35:26;;;;;;;26.90;13.75;;;27.50;53.50;;;;;;5044506;28;20021;-85
2021/08/23 05:37:58;;;;;;;28.33;15.15;;;27.90;52.90;;;;;;5041775;28;20029;-87
2021/08/23 05:40:24;;;;;;;29.73;15.55;;;28.10;51.90;;;;;;5039258;28;20132;-86
2021/08/23 05:42:51;;;;;;;29.73;16.05;;;28.40;51.40;;;;;;5034293;28;20424;-86
2021/08/23 05:45:17;;;;;;;33.03;17.33;;;28.60;50.80;;;;;;5038995;28;20371;-86
2021/08/23 05:47:42;;;;;;;29.33;16.40;;;28.90;50.50;;;;;;5041238;28;20025;-86
2021/08/23 05:50:09;;;;;;;31.95;17.35;;;29.20;50.10;;;;;;5034536;28;20024;-88
2021/08/23 05:52:34;;;;;;;28.80;16.55;;;29.50;49.90;;;;;;5033755;28;20078;-87
2021/08/23 05:55:00;;;;;;;24.70;14.68;;;29.60;49.40;;;;;;5034036;28;20029;-82
2021/08/23 05:57:27;;;;;;;21.88;13.45;;;29.90;49.50;;;;;;5036156;28;20032;-82
2021/08/23 05:59:53;;;;;;;20.08;11.80;;;30.00;49.30;;;;;;5045468;28;20037;-82
2021/08/23 06:02:19;;;;;;;13.38;9.70;;;30.20;48.90;;;;;;5034232;28;20112;-82
2021/08/23 06:04:45;;;;;;;17.77;10.73;;;30.30;48.30;;;;;;5047460;28;20199;-82
2021/08/23 06:07:10;;;;;;;16.67;10.15;;;30.50;48.30;;;;;;5035541;28;20049;-82
2021/08/23 06:09:36;;;;;;;16.13;9.45;;;30.80;48.40;;;;;;5036522;28;20036;-82
2021/08/23 06:12:02;;;;;;;13.70;8.77;;;31.00;48.20;;;;;;5033564;28;20435;-82
2021/08/23 06:14:28;;;;;;;14.77;8.80;;;30.90;47.50;;;;;;5032173;28;20486;-76
2021/08/23 06:16:54;;;;;;;15.85;9.10;;;30.90;47.50;;;;;;5032084;28;20029;-81
2021/08/23 06:19:20;;;;;;;12.02;7.70;;;31.10;47.50;;;;;;5043873;28;20025;-80
2021/08/23 06:21:46;;;;;;;15.98;9.15;;;31.20;46.90;;;;;;5034510;28;20029;-79
2021/08/23 06:24:12;;;;;;;11.90;7.90;;;31.30;47.00;;;;;;5042220;28;20028;-79
2021/08/23 06:26:38;;;;;;;9.57;5.68;;;31.60;46.60;;;;;;5040297;28;20099;-79
2021/08/23 06:29:03;;;;;;;8.75;5.35;;;31.80;45.90;;;;;;5035059;28;20448;-79
2021/08/23 06:31:29;;;;;;;9.15;6.00;;;31.60;45.00;;;;;;5053396;28;20032;-80
2021/08/23 06:33:55;;;;;;;7.78;4.57;;;31.60;45.30;;;;;;5051543;28;20434;-80
2021/08/23 06:36:21;;;;;;;8.82;4.07;;;31.70;44.90;;;;;;5034012;28;20017;-79
2021/08/23 06:38:46;;;;;;;13.70;4.75;;;31.70;44.30;;;;;;5028321;28;20055;-80
2021/08/23 06:41:17;;;;;;;7.43;2.30;;;32.00;44.50;;;;;;5032877;28;20410;-71
2021/08/23 06:43:44;;;;;;;7.47;3.10;;;32.20;43.40;;;;;;5033684;28;20033;-71
2021/08/23 06:46:10;;;;;;;5.53;3.10;;;32.30;43.10;;;;;;5033229;28;20340;-70
2021/08/23 06:48:35;;;;;;;7.78;3.70;;;32.50;42.90;;;;;;5033104;28;20032;-70
2021/08/23 06:51:01;;;;;;;7.70;3.42;;;32.60;42.70;;;;;;5037571;28;20033;-71
2021/08/23 06:53:27;;;;;;;9.80;4.57;;;32.60;43.10;;;;;;5031531;28;20221;-70
2021/08/23 06:55:52;;;;;;;13.02;5.15;;;32.60;43.50;;;;;;5032114;28;20155;-69
2021/08/23 06:58:18;;;;;;;5.18;2.58;;;32.80;43.50;;;;;;5032852;28;20060;-71
2021/08/23 07:00:44;;;;;;;5.78;2.20;;;33.00;42.30;;;;;;5031842;28;20021;-72
2021/08/23 07:03:09;;;;;;;4.07;2.40;;;33.00;41.40;;;;;;5030970;28;20348;-71
2021/08/23 07:05:35;;;;;;;2.88;1.52;;;33.10;40.50;;;;;;5032254;28;20456;-70
2021/08/23 07:08:01;;;;;;;4.47;2.20;;;33.10;39.80;;;;;;5030073;28;20068;-70
2021/08/23 07:10:26;;;;;;;5.65;2.08;;;33.00;40.00;;;;;;5031124;28;20021;-71
2021/08/23 07:12:52;;;;;;;4.00;1.92;;;33.00;40.00;;;;;;5031176;28;20022;-71
2021/08/23 07:15:18;;;;;;;2.92;1.70;;;33.10;39.50;;;;;;5029765;28;20033;-71
2021/08/23 07:17:43;;;;;;;3.90;2.00;;;33.00;39.80;;;;;;5028566;28;20029;-70
2021/08/23 07:20:09;;;;;;;5.70;2.08;;;33.10;38.50;;;;;;5030705;28;20025;-70
2021/08/23 07:22:35;;;;;;;4.88;1.67;;;32.80;38.20;;;;;;5024258;28;20355;-71
2021/08/23 07:25:01;;;;;;;3.75;1.50;;;32.50;38.00;;;;;;5029754;28;20113;-71
2021/08/23 07:27:27;;;;;;;2.65;1.40;;;32.60;38.20;;;;;;5023114;28;20061;-70
2021/08/23 07:29:52;;;;;;;6.28;2.28;;;32.70;38.30;;;;;;5032615;28;20076;-70
2021/08/23 07:32:18;;;;;;;4.05;1.30;;;32.80;36.80;;;;;;5032436;28;20029;-70
2021/08/23 07:34:44;;;;;;;2.80;1.17;;;32.60;37.10;;;;;;5028258;28;20068;-70
2021/08/23 07:37:14;;;;;;;4.05;1.85;;;32.70;37.50;;;;;;5038426;28;20463;-70
2021/08/23 07:39:40;;;;;;;3.53;1.40;;;32.90;37.70;;;;;;5036545;28;20027;-71
2021/08/23 07:42:06;;;;;;;2.53;1.30;;;32.90;36.80;;;;;;5041063;28;20032;-71
2021/08/23 07:44:32;;;;;;;2.20;1.33;;;32.90;36.80;;;;;;5031425;28;20029;-70
2021/08/23 07:46:58;;;;;;;3.15;1.48;;;32.80;36.90;;;;;;5032745;28;20052;-70
2021/08/23 07:49:23;;;;;;;2.55;1.23;;;33.10;36.80;;;;;;5031253;28;20029;-70
2021/08/23 07:51:49;;;;;;;3.03;1.20;;;33.10;36.50;;;;;;5031374;28;20104;-69
2021/08/23 07:54:18;;;;;;;2.47;1.30;;;33.40;36.70;;;;;;5032869;28;20418;-69
2021/08/23 07:56:45;;;;;;;2.97;1.40;;;33.80;36.50;;;;;;5031341;28;20030;-71
2021/08/23 07:59:11;;;;;;;2.75;1.40;;;33.90;36.00;;;;;;5028083;28;20021;-71
2021/08/23 08:01:36;;;;;;;2.88;1.30;;;33.90;36.10;;;;;;5029197;28;20021;-69
2021/08/23 08:04:02;;;;;;;3.33;1.60;;;34.10;35.80;;;;;;5032378;28;20026;-73
2021/08/23 08:06:28;;;;;;;2.70;1.20;;;34.20;35.90;;;;;;5030873;28;20036;-69
2021/08/23 08:08:54;;;;;;;2.08;1.00;;;34.20;35.80;;;;;;5032704;28;20164;-72
2021/08/23 08:11:20;;;;;;;1.75;1.00;;;34.40;35.80;;;;;;5034256;28;20356;-79
2021/08/23 08:13:46;;;;;;;4.03;1.17;;;34.30;34.90;;;;;;5032724;28;20037;-82
2021/08/23 08:16:12;;;;;;;2.05;1.08;;;34.50;34.90;;;;;;5033991;28;20112;-79
2021/08/23 08:18:38;;;;;;;3.50;1.40;;;34.50;35.00;;;;;;5031801;28;20212;-80
2021/08/23 08:21:03;;;;;;;2.53;1.27;;;34.90;35.40;;;;;;5033599;28;20045;-88
2021/08/23 08:23:30;;;;;;;4.60;1.52;;;35.20;35.00;;;;;;5034656;28;20469;-83
2021/08/23 08:25:56;;;;;;;11.30;4.90;;;35.50;35.70;;;;;;5034494;28;20032;-86
2021/08/23 08:28:22;;;;;;;9.32;5.38;;;35.50;36.70;;;;;;5031387;28;20372;-86
2021/08/23 08:30:48;;;;;;;8.48;5.45;;;35.30;37.60;;;;;;5033096;28;20036;-87
2021/08/23 08:33:15;;;;;;;6.50;4.00;;;35.00;38.60;;;;;;5037909;28;20025;-87
2021/08/23 08:35:41;;;;;;;7.15;3.75;;;34.90;38.60;;;;;;5039933;28;20076;-87
2021/08/23 08:38:08;;;;;;;8.52;3.75;;;34.50;38.60;;;;;;5042599;28;20032;-86
2021/08/23 08:40:34;;;;;;;7.65;3.30;;;34.10;38.70;;;;;;5038583;28;20408;-86
2021/08/23 08:43:02;;;;;;;7.43;3.45;;;33.60;39.20;;;;;;5051982;28;20018;-84
2021/08/23 08:45:30;;;;;;;17.10;4.55;;;33.30;39.80;;;;;;5051397;28;20700;-86
2021/08/23 08:48:00;;;;;;;9.48;4.85;;;33.30;41.00;;;;;;5047189;28;20033;-85
2021/08/23 08:50:27;;;;;;;10.75;8.27;;;33.60;41.70;;;;;;5032433;28;20060;-87
2021/08/23 08:52:52;;;;;;;9.00;7.38;;;33.90;41.50;;;;;;5034312;28;20033;-85
2021/08/23 08:55:18;;;;;;;10.80;5.90;;;34.10;41.10;;;;;;5034055;28;20363;-85
2021/08/23 08:57:44;;;;;;;15.00;10.30;;;34.20;41.30;;;;;;5033830;28;20115;-84
2021/08/23 09:00:10;;;;;;;25.23;22.67;;;34.10;40.90;;;;;;5033168;28;20029;-85
2021/08/23 09:02:36;;;;;;;24.17;21.85;;;34.10;40.90;;;;;;5035573;28;20116;-85
2021/08/23 09:05:17;;;;;;;16.35;11.68;;;34.30;40.70;;;;;;5034018;28;20164;-85
2021/08/23 09:07:50;;;;;;;12.63;11.32;;;34.10;40.40;;;;;;5035559;28;20107;-84
2021/08/23 09:10:24;;;;;;;6.68;4.95;;;33.90;40.90;;;;;;5029256;28;20379;-84
2021/08/23 09:13:12;;;;;;;9.80;6.45;;;33.80;40.80;;;;;;5033619;28;20085;-84
2021/08/23 09:15:52;;;;;;;11.02;4.88;;;33.60;40.70;;;;;;5056889;28;20041;-72
2021/08/23 09:18:23;;;;;;;7.95;5.78;;;33.70;40.20;;;;;;5034318;28;20037;-71
2021/08/23 09:21:01;;;;;;;13.15;4.88;;;33.90;40.40;;;;;;5027821;28;20082;-72
2021/08/23 09:23:43;;;;;;;13.15;7.90;;;34.20;40.50;;;;;;5029525;28;20491;-73
2021/08/23 09:26:17;;;;;;;7.15;4.57;;;34.50;39.10;;;;;;5032395;28;20049;-74
2021/08/23 09:28:56;;;;;;;10.82;6.00;;;34.60;38.30;;;;;;5029689;28;20109;-73
2021/08/23 09:31:36;;;;;;;7.10;5.00;;;34.70;38.30;;;;;;5027414;28;20013;-76
2021/08/23 09:34:15;;;;;;;8.27;4.28;;;34.80;37.80;;;;;;5022352;28;20029;-76
2021/08/23 09:36:41;;;;;;;5.97;4.40;;;34.50;36.70;;;;;;5030714;28;20028;-76
2021/08/23 09:39:18;;;;;;;6.35;3.50;;;34.10;36.30;;;;;;5033817;28;20033;-76
2021/08/23 09:41:43;;;;;;;6.05;4.95;;;33.80;37.20;;;;;;5030946;28;20029;-71
2021/08/23 09:44:14;;;;;;;6.40;2.10;;;33.40;37.20;;;;;;5032932;28;20030;-81
2021/08/23 09:46:41;;;;;;;4.30;1.90;;;33.10;37.00;;;;;;5023453;28;20091;-82
2021/08/23 09:49:09;;;;;;;4.60;1.70;;;32.70;37.20;;;;;;5029909;28;20125;-81
2021/08/23 09:51:37;;;;;;;3.90;2.42;;;32.50;38.00;;;;;;5031637;28;20029;-81
2021/08/23 09:54:12;;;;;;;6.20;3.58;;;32.70;38.50;;;;;;5032778;28;20017;-81
2021/08/23 09:56:51;;;;;;;5.72;3.63;;;33.10;38.50;;;;;;5033303;28;20026;-81
2021/08/23 09:59:23;;;;;;;5.80;4.22;;;33.50;38.30;;;;;;5030231;28;20434;-81
2021/08/23 10:01:51;;;;;;;3.25;2.20;;;33.80;37.50;;;;;;5031198;28;20413;-81
2021/08/23 10:04:18;;;;;;;12.32;6.40;;;33.90;36.60;;;;;;5032805;28;20025;-80
2021/08/23 10:06:45;;;;;;;8.60;4.68;;;33.60;36.80;;;;;;5030220;28;20040;-79
2021/08/23 10:09:18;;;;;;;18.20;12.00;;;33.50;37.20;;;;;;5032309;28;20048;-81
2021/08/23 10:11:44;;;;;;;12.77;9.35;;;33.50;37.60;;;;;;5031410;28;20037;-80
2021/08/23 10:14:10;;;;;;;10.38;5.55;;;33.60;36.90;;;;;;5034264;28;20081;-79
2021/08/23 10:16:36;;;;;;;9.77;5.40;;;33.50;37.00;;;;;;5034441;28;20077;-80
2021/08/23 10:19:03;;;;;;;11.65;7.57;;;33.90;37.50;;;;;;5040116;28;20030;-80
2021/08/23 10:21:30;;;;;;;14.48;12.45;;;34.20;37.00;;;;;;5037829;28;20400;-81
2021/08/23 10:23:59;;;;;;;14.00;9.40;;;34.40;36.60;;;;;;5034723;28;20052;-80
2021/08/23 10:26:25;;;;;;;6.57;3.85;;;34.00;36.30;;;;;;5029390;28;20399;-82
2021/08/23 10:28:52;;;;;;;4.82;1.80;;;33.60;36.70;;;;;;5032337;28;20112;-80
2021/08/23 10:31:20;;;;;;;3.50;1.42;;;33.40;36.40;;;;;;5032227;28;20029;-79
2021/08/23 10:33:48;;;;;;;3.38;1.30;;;32.90;36.10;;;;;;5031726;28;20021;-80
2021/08/23 10:36:16;;;;;;;5.10;1.70;;;32.30;36.50;;;;;;5032119;28;20353;-80
2021/08/23 10:38:47;;;;;;;3.88;1.70;;;32.00;37.60;;;;;;5031939;28;20446;-79
2021/08/23 10:41:24;;;;;;;5.85;1.88;;;32.10;38.00;;;;;;5032083;28;20104;-87
2021/08/23 10:43:52;;;;;;;3.47;1.60;;;32.10;37.50;;;;;;5029476;28;20124;-86
2021/08/23 10:46:22;;;;;;;4.45;2.15;;;31.50;37.70;;;;;;5032279;28;20029;-80
2021/08/23 10:48:50;;;;;;;4.00;2.15;;;30.70;38.60;;;;;;5031476;28;20083;-79
2021/08/23 10:51:58;;;;;;;3.28;1.80;;;29.90;39.70;;;;;;5025503;28;20452;-80
2021/08/23 10:54:38;;;;;;;4.40;2.22;;;29.40;41.00;;;;;;5019805;28;20056;-76
2021/08/23 10:57:05;;;;;;;4.85;2.22;;;29.10;41.40;;;;;;5032160;28;20040;-77
2021/08/23 10:59:40;;;;;;;4.20;2.33;;;28.90;41.80;;;;;;5032745;28;20112;-77
2021/08/23 11:02:08;;;;;;;7.10;2.88;;;28.70;43.00;;;;;;5029577;28;20017;-78
2021/08/23 11:04:40;;;;;;;6.28;2.35;;;28.70;42.80;;;;;;5030358;28;20036;-77
2021/08/23 11:07:07;;;;;;;7.60;2.75;;;28.80;42.50;;;;;;5029221;28;20107;-78
2021/08/23 11:09:36;;;;;;;5.03;2.30;;;28.60;41.80;;;;;;5031703;28;20021;-82
2021/08/23 11:12:10;;;;;;;3.58;2.15;;;28.30;41.90;;;;;;5031077;28;20108;-84
2021/08/23 11:14:52;;;;;;;;;;;28.20;42.60;;;;;;5031763;28;20021;-85
2021/08/23 11:17:32;;;;;;;5.20;2.00;;;28.10;42.40;;;;;;5027520;28;19920;-83
2021/08/23 11:20:07;;;;;;;7.03;3.92;;;27.80;42.70;;;;;;5028436;28;20040;-82
2021/08/23 11:22:33;;;;;;;6.75;2.72;;;28.10;43.30;;;;;;5031782;28;20025;-84
2021/08/23 11:24:59;;;;;;;11.07;7.15;;;28.80;42.60;;;;;;5030089;28;20026;-83
2021/08/23 11:27:25;;;;;;;9.23;5.78;;;29.50;42.70;;;;;;5029696;28;20036;-81
2021/08/23 11:29:54;;;;;;;4.80;2.25;;;30.40;41.40;;;;;;5026250;28;20068;-84
2021/08/23 11:32:28;;;;;;;9.52;4.40;;;30.60;40.20;;;;;;5030067;28;20032;-80
2021/08/23 11:34:55;;;;;;;9.80;6.00;;;31.00;40.70;;;;;;5028682;28;20025;-87
2021/08/23 11:37:24;;;;;;;10.02;6.63;;;31.10;39.90;;;;;;5030730;28;20040;-83
2021/08/23 11:40:03;;;;;;;10.30;5.30;;;31.30;39.50;;;;;;5032193;28;20025;-85
2021/08/23 11:42:28;;;;;;;4.78;2.22;;;31.20;39.20;;;;;;5030152;28;20029;-83
2021/08/23 11:44:54;;;;;;;5.53;2.03;;;30.80;39.10;;;;;;5032919;28;20068;-81
2021/08/23 11:47:33;;;;;;;4.15;2.53;;;30.30;39.30;;;;;;5033884;28;20032;-82
2021/08/23 11:50:00;;;;;;;3.97;1.80;;;29.70;39.60;;;;;;5031955;28;20026;-81
2021/08/23 11:52:26;;;;;;;4.15;2.00;;;29.10;40.30;;;;;;5035216;28;20028;-87
2021/08/23 11:54:53;;;;;;;4.80;2.40;;;28.60;40.90;;;;;;5038520;28;20021;-84
2021/08/23 11:57:23;;;;;;;3.58;2.20;;;28.30;41.70;;;;;;5036635;28;20034;-84
2021/08/23 11:59:56;;;;;;;3.65;2.20;;;28.30;41.70;;;;;;5033768;28;20025;-86
2021/08/23 12:02:28;;;;;;;9.98;2.33;;;28.20;42.20;;;;;;5032771;28;20071;-87
2021/08/23 12:05:04;;;;;;;3.63;2.30;;;28.00;41.90;;;;;;5030065;28;20029;-82
2021/08/23 12:07:40;;;;;;;6.93;2.50;;;28.00;42.20;;;;;;5030823;28;20486;-85
2021/08/23 12:10:06;;;;;;;3.20;1.67;;;27.90;42.40;;;;;;5029367;28;20025;-81
2021/08/23 12:12:32;;;;;;;3.05;1.70;;;27.80;41.50;;;;;;5029334;28;20025;-84
2021/08/23 12:14:58;;;;;;;5.95;2.83;;;27.70;41.90;;;;;;5029494;28;20025;-89
2021/08/23 12:17:32;;;;;;;3.85;2.10;;;27.60;42.10;;;;;;5030065;28;20079;-84
2021/08/23 12:20:05;;;;;;;4.03;2.25;;;27.50;42.70;;;;;;5029907;28;20037;-83
2021/08/23 12:22:31;;;;;;;5.78;2.30;;;27.40;42.50;;;;;;5027637;28;20455;-84
2021/08/23 12:24:58;;;;;;;4.55;2.20;;;27.40;42.80;;;;;;5022620;28;20029;-85
2021/08/23 12:27:24;;;;;;;5.10;3.03;;;27.50;42.70;;;;;;5030769;28;20026;-85
2021/08/23 12:29:50;;;;;;;6.47;2.80;;;27.40;42.20;;;;;;5031862;28;20032;-87
2021/08/23 12:32:15;;;;;;;5.65;3.03;;;27.10;42.40;;;;;;5030580;28;20017;-89
2021/08/23 12:34:51;;;;;;;9.68;3.45;;;27.00;42.80;;;;;;5031051;28;20456;-85
2021/08/23 12:37:19;;;;;;;6.38;2.33;;;27.00;42.80;;;;;;5030887;28;20743;-83